< < Back
Terminal Aerodrome Forecast


Current Version              Previous Versions:   1  2  3  4  5  6  7  8  9  

Terminal Aerodrome Forecast

254
FTUS42 KTAE 232023 AAA
TAFABY
TAF AMD
KABY 232023Z 2320/2418 VRB04KT P6SM SCT040
      TEMPO 2321/2324 TS BKN040CB
     FM240000 08003KT P6SM SCT040 BKN250=



Latest METAR

941
SAUS70 KWBC 240400 RRB
MTRABY
METAR KABY 240353Z AUTO 08004KT 10SM FEW019 26/23 A3022 RMK AO2 SLP232
T02560233


USA.gov is the U.S. government's official web portal to all federal, state and local government web resources and services.